Crescent City, FL

7:44 AM EDT en Noviembre 01, 2014 (GMT -0400)
Beulah Church Rd,Fruitland | Change Station
CLOSE
Current Station
Estación meteorológica personal
Location: Crescent City, FL
Altura: 45 ft
Estaciones meteorológicas cercanas
Aviso en curso: Wind Advisory

Alt 45 ft 29.44 °N, 81.63 °W | Updated 0 second ago

Despejado
Despejado
51.3 ° F
Sensación térmica 51.3 ° F
N
6.0
Viento Variable Viento desde ONO
Gusts 22.0 mph

Hoy
Alta -- | Baja -- ° F
--% Posibilidad de precipitaciones
Ayer
Alta -- | Baja -- ° F
Precip. -- pul
7:39 AM 6:39 PM
Gibosa creciente, 65% visible
Presión 29.94 pul
Visibilidad 7.0 Millas
Nubes Nubes dispersas 3000 ft
Punto de rocío 38 ° F
Humedad 60%
Precipitaciones 0.00 pul
Espesor de la nieve No disponible.
UV 0 de una escala de 12
Polen 5.00 de una escala de 12
Calidad del aire No disponible.
Flu Activity No disponible.
METAR KOMN 011150Z 31017G25KT 7SM SCT030 11/07 A2994

More Conditions Fewer Conditions

Presión 29.94 pul
Visibilidad 7.0 Millas
Nubes Nubes dispersas 3000 ft
Punto de rocío 38 ° F
Humedad 60%
Precipitaciones 0.00 pul
Espesor de la nieve No disponible.
UV 0 de una escala de 12
Polen 5.00 de una escala de 12
Calidad del aire No disponible.
Flu Activity No disponible.
METAR KOMN 011150Z 31017G25KT 7SM SCT030 11/07 A2994

More Conditions Fewer Conditions

10-Day Weather Forecast

Almanac

Astronomía

Nov. 01, 2014 Salida Puesta
Hora real
Crepúsculo civil
Crepúsculo náutico
Crepúsculo astronómico
Luna
Horas de luz
Horas de luz
Tomorrow will be .
, % of the Moon is Illuminated

Extremos de hoy

Máximos del estado Bajos del estado

Community

WunderPhotos

Upload Photos

1,766,903 ¡fotos cargadas!

WunderBlogs® & News

Nearby

Calidad del aire

  Calidad del aire Índice AQ Contaminante
Not available.

Grosos de nieve

Estación Profundido Altura

Actividad de terremotos

Ciudad Distance Mag. Tiempo y dato
Magnitud mínima muestra es 2,5.

Temperaturas de aguas costeras

Lugar Temperatura

Estaciones meteorológicas cercanas